sensor_id;sensor_type;location;lat;lon;timestamp;temperature;humidity
17701;DHT22;8969;48.576;12.580;2024-03-29T00:01:02;3.20;99.90
17701;DHT22;8969;48.576;12.580;2024-03-29T00:03:29;3.20;99.90
17701;DHT22;8969;48.576;12.580;2024-03-29T00:05:55;3.20;99.90
17701;DHT22;8969;48.576;12.580;2024-03-29T00:08:21;3.20;99.90
17701;DHT22;8969;48.576;12.580;2024-03-29T00:10:48;3.20;99.90
17701;DHT22;8969;48.576;12.580;2024-03-29T00:13:15;3.30;99.90
17701;DHT22;8969;48.576;12.580;2024-03-29T00:15:41;3.30;99.90
17701;DHT22;8969;48.576;12.580;2024-03-29T00:18:08;3.30;99.90
17701;DHT22;8969;48.576;12.580;2024-03-29T00:20:34;3.20;99.90
17701;DHT22;8969;48.576;12.580;2024-03-29T00:23:02;3.30;99.90
17701;DHT22;8969;48.576;12.580;2024-03-29T00:25:29;3.30;99.90
17701;DHT22;8969;48.576;12.580;2024-03-29T00:27:55;3.30;99.90
17701;DHT22;8969;48.576;12.580;2024-03-29T00:30:22;3.30;99.90
17701;DHT22;8969;48.576;12.580;2024-03-29T00:32:48;3.10;99.90
17701;DHT22;8969;48.576;12.580;2024-03-29T00:35:14;3.20;99.90
17701;DHT22;8969;48.576;12.580;2024-03-29T00:37:41;3.20;99.90
17701;DHT22;8969;48.576;12.580;2024-03-29T00:40:07;3.20;99.90
17701;DHT22;8969;48.576;12.580;2024-03-29T00:42:34;3.20;99.90
17701;DHT22;8969;48.576;12.580;2024-03-29T00:45:00;3.20;99.90
17701;DHT22;8969;48.576;12.580;2024-03-29T00:47:29;3.20;99.90
17701;DHT22;8969;48.576;12.580;2024-03-29T00:49:55;3.10;99.90
17701;DHT22;8969;48.576;12.580;2024-03-29T00:52:21;3.10;99.90
17701;DHT22;8969;48.576;12.580;2024-03-29T00:54:48;3.10;99.90
17701;DHT22;8969;48.576;12.580;2024-03-29T00:57:14;3.10;99.90
17701;DHT22;8969;48.576;12.580;2024-03-29T00:59:40;3.10;99.90
17701;DHT22;8969;48.576;12.580;2024-03-29T01:02:06;3.20;99.90
17701;DHT22;8969;48.576;12.580;2024-03-29T01:04:34;3.20;99.90
17701;DHT22;8969;48.576;12.580;2024-03-29T01:07:00;3.20;99.90
17701;DHT22;8969;48.576;12.580;2024-03-29T01:09:27;3.20;99.90
17701;DHT22;8969;48.576;12.580;2024-03-29T01:11:53;3.20;99.90
17701;DHT22;8969;48.576;12.580;2024-03-29T01:14:20;3.20;99.90
17701;DHT22;8969;48.576;12.580;2024-03-29T01:16:47;3.30;99.90
17701;DHT22;8969;48.576;12.580;2024-03-29T01:19:13;3.30;99.90
17701;DHT22;8969;48.576;12.580;2024-03-29T01:21:40;3.30;99.90
17701;DHT22;8969;48.576;12.580;2024-03-29T01:24:07;3.30;99.90
17701;DHT22;8969;48.576;12.580;2024-03-29T01:26:33;3.30;99.90
17701;DHT22;8969;48.576;12.580;2024-03-29T01:29:02;3.30;99.90
17701;DHT22;8969;48.576;12.580;2024-03-29T01:31:29;3.50;99.90
17701;DHT22;8969;48.576;12.580;2024-03-29T01:33:55;3.60;99.90
17701;DHT22;8969;48.576;12.580;2024-03-29T01:36:22;3.50;99.90
17701;DHT22;8969;48.576;12.580;2024-03-29T01:38:49;3.40;99.90
17701;DHT22;8969;48.576;12.580;2024-03-29T01:41:15;3.50;99.90
17701;DHT22;8969;48.576;12.580;2024-03-29T01:43:42;3.50;99.90
17701;DHT22;8969;48.576;12.580;2024-03-29T01:46:09;3.50;99.90
17701;DHT22;8969;48.576;12.580;2024-03-29T01:48:36;3.40;99.90
17701;DHT22;8969;48.576;12.580;2024-03-29T01:51:04;3.40;99.90
17701;DHT22;8969;48.576;12.580;2024-03-29T01:53:31;3.30;99.90
17701;DHT22;8969;48.576;12.580;2024-03-29T01:56:00;3.30;99.90
17701;DHT22;8969;48.576;12.580;2024-03-29T01:58:29;3.20;99.90
17701;DHT22;8969;48.576;12.580;2024-03-29T02:00:58;3.20;99.90
17701;DHT22;8969;48.576;12.580;2024-03-29T02:03:27;3.10;99.90
17701;DHT22;8969;48.576;12.580;2024-03-29T02:05:55;3.10;99.90
17701;DHT22;8969;48.576;12.580;2024-03-29T02:08:25;3.00;99.90
17701;DHT22;8969;48.576;12.580;2024-03-29T02:10:52;2.90;99.90
17701;DHT22;8969;48.576;12.580;2024-03-29T02:13:21;2.80;99.90
17701;DHT22;8969;48.576;12.580;2024-03-29T02:15:49;2.80;99.90
17701;DHT22;8969;48.576;12.580;2024-03-29T02:18:16;2.80;99.90
17701;DHT22;8969;48.576;12.580;2024-03-29T02:20:43;2.80;99.90
17701;DHT22;8969;48.576;12.580;2024-03-29T02:23:11;2.80;99.90
17701;DHT22;8969;48.576;12.580;2024-03-29T02:25:42;2.80;99.90
17701;DHT22;8969;48.576;12.580;2024-03-29T02:28:10;2.80;99.90
17701;DHT22;8969;48.576;12.580;2024-03-29T02:30:37;2.80;99.90
17701;DHT22;8969;48.576;12.580;2024-03-29T02:33:04;2.80;99.90
17701;DHT22;8969;48.576;12.580;2024-03-29T02:35:31;2.70;99.90
17701;DHT22;8969;48.576;12.580;2024-03-29T02:37:59;2.80;99.90
17701;DHT22;8969;48.576;12.580;2024-03-29T02:40:27;2.80;99.90
17701;DHT22;8969;48.576;12.580;2024-03-29T02:42:55;2.80;99.90
17701;DHT22;8969;48.576;12.580;2024-03-29T02:45:23;2.90;99.90
17701;DHT22;8969;48.576;12.580;2024-03-29T02:47:50;3.00;99.90
17701;DHT22;8969;48.576;12.580;2024-03-29T02:50:16;3.00;99.90
17701;DHT22;8969;48.576;12.580;2024-03-29T02:52:44;3.10;99.90
17701;DHT22;8969;48.576;12.580;2024-03-29T02:55:10;3.30;99.90
17701;DHT22;8969;48.576;12.580;2024-03-29T02:57:37;3.50;99.90
17701;DHT22;8969;48.576;12.580;2024-03-29T03:00:06;3.50;99.90
17701;DHT22;8969;48.576;12.580;2024-03-29T03:02:37;3.50;99.90
17701;DHT22;8969;48.576;12.580;2024-03-29T03:05:04;3.50;99.90
17701;DHT22;8969;48.576;12.580;2024-03-29T03:07:31;3.50;99.90
17701;DHT22;8969;48.576;12.580;2024-03-29T03:10:17;3.50;99.90
17701;DHT22;8969;48.576;12.580;2024-03-29T03:13:02;3.50;99.90
17701;DHT22;8969;48.576;12.580;2024-03-29T03:15:31;3.60;99.90
17701;DHT22;8969;48.576;12.580;2024-03-29T03:17:58;3.70;99.90
17701;DHT22;8969;48.576;12.580;2024-03-29T03:20:26;3.70;99.90
17701;DHT22;8969;48.576;12.580;2024-03-29T03:22:56;3.70;99.90
17701;DHT22;8969;48.576;12.580;2024-03-29T03:25:25;3.70;99.90
17701;DHT22;8969;48.576;12.580;2024-03-29T03:27:51;3.70;99.90
17701;DHT22;8969;48.576;12.580;2024-03-29T03:30:18;3.70;99.90
17701;DHT22;8969;48.576;12.580;2024-03-29T03:32:46;3.60;99.90
17701;DHT22;8969;48.576;12.580;2024-03-29T03:35:13;3.60;99.90
17701;DHT22;8969;48.576;12.580;2024-03-29T03:37:40;3.60;99.90
17701;DHT22;8969;48.576;12.580;2024-03-29T03:40:08;3.60;99.90
17701;DHT22;8969;48.576;12.580;2024-03-29T03:42:35;3.70;99.90
17701;DHT22;8969;48.576;12.580;2024-03-29T03:45:02;3.70;99.90
17701;DHT22;8969;48.576;12.580;2024-03-29T03:47:31;3.60;99.90
17701;DHT22;8969;48.576;12.580;2024-03-29T03:49:59;3.70;99.90
17701;DHT22;8969;48.576;12.580;2024-03-29T03:52:25;3.70;99.90
17701;DHT22;8969;48.576;12.580;2024-03-29T03:54:52;3.70;99.90
17701;DHT22;8969;48.576;12.580;2024-03-29T03:57:18;3.70;99.90
17701;DHT22;8969;48.576;12.580;2024-03-29T03:59:45;3.70;99.90
17701;DHT22;8969;48.576;12.580;2024-03-29T04:02:12;3.70;99.90
17701;DHT22;8969;48.576;12.580;2024-03-29T04:04:39;3.70;99.90
17701;DHT22;8969;48.576;12.580;2024-03-29T04:07:06;3.70;99.90
17701;DHT22;8969;48.576;12.580;2024-03-29T04:09:33;3.70;99.90
17701;DHT22;8969;48.576;12.580;2024-03-29T04:12:02;3.60;99.90
17701;DHT22;8969;48.576;12.580;2024-03-29T04:14:29;3.70;99.90
17701;DHT22;8969;48.576;12.580;2024-03-29T04:16:56;3.70;99.90
17701;DHT22;8969;48.576;12.580;2024-03-29T04:19:22;3.80;99.90
17701;DHT22;8969;48.576;12.580;2024-03-29T04:21:49;3.70;99.90
17701;DHT22;8969;48.576;12.580;2024-03-29T04:24:16;3.70;99.90
17701;DHT22;8969;48.576;12.580;2024-03-29T04:26:43;3.60;99.90
17701;DHT22;8969;48.576;12.580;2024-03-29T04:29:11;3.60;99.90
17701;DHT22;8969;48.576;12.580;2024-03-29T04:31:38;3.50;99.90
17701;DHT22;8969;48.576;12.580;2024-03-29T04:34:04;3.40;99.90
17701;DHT22;8969;48.576;12.580;2024-03-29T04:36:32;3.40;99.90
17701;DHT22;8969;48.576;12.580;2024-03-29T04:38:58;3.30;99.90
17701;DHT22;8969;48.576;12.580;2024-03-29T04:41:28;3.40;99.90
17701;DHT22;8969;48.576;12.580;2024-03-29T04:43:59;3.30;99.90
17701;DHT22;8969;48.576;12.580;2024-03-29T04:46:29;3.20;99.90
17701;DHT22;8969;48.576;12.580;2024-03-29T04:48:57;3.20;99.90
17701;DHT22;8969;48.576;12.580;2024-03-29T04:51:24;3.20;99.90
17701;DHT22;8969;48.576;12.580;2024-03-29T04:53:51;3.30;99.90
17701;DHT22;8969;48.576;12.580;2024-03-29T04:56:19;3.30;99.90
17701;DHT22;8969;48.576;12.580;2024-03-29T04:58:47;3.30;99.90
17701;DHT22;8969;48.576;12.580;2024-03-29T05:01:14;3.30;99.90
17701;DHT22;8969;48.576;12.580;2024-03-29T05:03:41;3.30;99.90
17701;DHT22;8969;48.576;12.580;2024-03-29T05:06:08;3.30;99.90
17701;DHT22;8969;48.576;12.580;2024-03-29T05:08:36;3.30;99.90
17701;DHT22;8969;48.576;12.580;2024-03-29T05:11:03;3.40;99.90
17701;DHT22;8969;48.576;12.580;2024-03-29T05:13:31;3.40;99.90
17701;DHT22;8969;48.576;12.580;2024-03-29T05:16:00;3.40;99.90
17701;DHT22;8969;48.576;12.580;2024-03-29T05:18:28;3.40;99.90
17701;DHT22;8969;48.576;12.580;2024-03-29T05:20:55;3.40;99.90
17701;DHT22;8969;48.576;12.580;2024-03-29T05:23:22;3.40;99.90
17701;DHT22;8969;48.576;12.580;2024-03-29T05:25:50;3.40;99.90
17701;DHT22;8969;48.576;12.580;2024-03-29T05:28:19;3.40;99.90
17701;DHT22;8969;48.576;12.580;2024-03-29T05:30:46;3.40;99.90
17701;DHT22;8969;48.576;12.580;2024-03-29T05:33:14;3.40;99.90
17701;DHT22;8969;48.576;12.580;2024-03-29T05:35:42;3.40;99.90
17701;DHT22;8969;48.576;12.580;2024-03-29T05:38:10;3.50;99.90
17701;DHT22;8969;48.576;12.580;2024-03-29T05:40:37;3.50;99.90
17701;DHT22;8969;48.576;12.580;2024-03-29T05:43:04;3.60;99.90
17701;DHT22;8969;48.576;12.580;2024-03-29T05:45:32;3.70;99.90
17701;DHT22;8969;48.576;12.580;2024-03-29T05:48:00;3.80;99.90
17701;DHT22;8969;48.576;12.580;2024-03-29T05:50:29;3.90;99.90
17701;DHT22;8969;48.576;12.580;2024-03-29T05:52:59;3.90;99.90
17701;DHT22;8969;48.576;12.580;2024-03-29T05:55:27;4.00;99.90
17701;DHT22;8969;48.576;12.580;2024-03-29T05:57:55;4.00;99.90
17701;DHT22;8969;48.576;12.580;2024-03-29T06:00:22;4.10;99.90
17701;DHT22;8969;48.576;12.580;2024-03-29T06:02:49;4.20;99.90
17701;DHT22;8969;48.576;12.580;2024-03-29T06:05:17;4.20;99.90
17701;DHT22;8969;48.576;12.580;2024-03-29T06:07:46;4.30;99.90
17701;DHT22;8969;48.576;12.580;2024-03-29T06:10:13;4.30;99.90
17701;DHT22;8969;48.576;12.580;2024-03-29T06:12:40;4.30;99.90
17701;DHT22;8969;48.576;12.580;2024-03-29T06:15:08;4.40;99.90
17701;DHT22;8969;48.576;12.580;2024-03-29T06:17:53;4.40;99.90
17701;DHT22;8969;48.576;12.580;2024-03-29T06:20:20;4.40;99.90
17701;DHT22;8969;48.576;12.580;2024-03-29T06:22:48;4.50;99.90
17701;DHT22;8969;48.576;12.580;2024-03-29T06:25:16;4.50;99.90
17701;DHT22;8969;48.576;12.580;2024-03-29T06:27:43;4.60;99.90
17701;DHT22;8969;48.576;12.580;2024-03-29T06:30:14;4.70;99.90
17701;DHT22;8969;48.576;12.580;2024-03-29T06:32:43;4.80;99.90
17701;DHT22;8969;48.576;12.580;2024-03-29T06:35:12;4.90;99.90
17701;DHT22;8969;48.576;12.580;2024-03-29T06:37:39;5.00;99.90
17701;DHT22;8969;48.576;12.580;2024-03-29T06:40:10;5.10;99.90
17701;DHT22;8969;48.576;12.580;2024-03-29T06:42:38;5.20;99.90
17701;DHT22;8969;48.576;12.580;2024-03-29T06:45:06;5.40;99.90
17701;DHT22;8969;48.576;12.580;2024-03-29T06:47:34;5.50;99.90
17701;DHT22;8969;48.576;12.580;2024-03-29T06:50:02;5.70;99.90
17701;DHT22;8969;48.576;12.580;2024-03-29T06:52:30;5.80;99.90
17701;DHT22;8969;48.576;12.580;2024-03-29T06:54:57;5.90;99.90
17701;DHT22;8969;48.576;12.580;2024-03-29T06:57:25;6.00;99.90
17701;DHT22;8969;48.576;12.580;2024-03-29T06:59:57;6.00;99.90
17701;DHT22;8969;48.576;12.580;2024-03-29T07:02:25;6.10;99.90
17701;DHT22;8969;48.576;12.580;2024-03-29T07:04:52;6.40;99.90
17701;DHT22;8969;48.576;12.580;2024-03-29T07:07:20;6.60;99.90
17701;DHT22;8969;48.576;12.580;2024-03-29T07:09:47;6.60;99.90
17701;DHT22;8969;48.576;12.580;2024-03-29T07:12:14;6.70;99.90
17701;DHT22;8969;48.576;12.580;2024-03-29T07:14:43;6.90;99.90
17701;DHT22;8969;48.576;12.580;2024-03-29T07:17:11;7.00;99.90
17701;DHT22;8969;48.576;12.580;2024-03-29T07:19:38;7.10;99.90
17701;DHT22;8969;48.576;12.580;2024-03-29T07:22:05;7.10;99.90
17701;DHT22;8969;48.576;12.580;2024-03-29T07:24:32;7.30;99.90
17701;DHT22;8969;48.576;12.580;2024-03-29T07:26:59;7.40;99.90
17701;DHT22;8969;48.576;12.580;2024-03-29T07:29:28;7.50;99.90
17701;DHT22;8969;48.576;12.580;2024-03-29T07:31:56;7.70;99.90
17701;DHT22;8969;48.576;12.580;2024-03-29T07:34:23;7.90;99.90
17701;DHT22;8969;48.576;12.580;2024-03-29T07:36:51;8.00;99.90
17701;DHT22;8969;48.576;12.580;2024-03-29T07:39:19;8.30;99.90
17701;DHT22;8969;48.576;12.580;2024-03-29T07:41:46;8.50;99.90
17701;DHT22;8969;48.576;12.580;2024-03-29T07:44:13;8.80;99.90
17701;DHT22;8969;48.576;12.580;2024-03-29T07:46:40;8.80;99.90
17701;DHT22;8969;48.576;12.580;2024-03-29T07:49:09;8.90;99.90
17701;DHT22;8969;48.576;12.580;2024-03-29T07:51:36;8.90;99.90
17701;DHT22;8969;48.576;12.580;2024-03-29T07:54:03;8.90;99.90
17701;DHT22;8969;48.576;12.580;2024-03-29T07:56:30;8.90;99.90
17701;DHT22;8969;48.576;12.580;2024-03-29T07:58:57;9.00;99.90
17701;DHT22;8969;48.576;12.580;2024-03-29T08:01:25;9.10;99.90
17701;DHT22;8969;48.576;12.580;2024-03-29T08:03:52;9.20;99.90
17701;DHT22;8969;48.576;12.580;2024-03-29T08:06:21;9.40;99.90
17701;DHT22;8969;48.576;12.580;2024-03-29T08:08:49;9.40;99.90
17701;DHT22;8969;48.576;12.580;2024-03-29T08:11:16;9.50;99.90
17701;DHT22;8969;48.576;12.580;2024-03-29T08:13:44;9.40;99.90
17701;DHT22;8969;48.576;12.580;2024-03-29T08:16:11;9.60;99.90
17701;DHT22;8969;48.576;12.580;2024-03-29T08:18:39;9.80;99.90
17701;DHT22;8969;48.576;12.580;2024-03-29T08:21:06;9.90;99.90
17701;DHT22;8969;48.576;12.580;2024-03-29T08:23:39;10.10;99.90
17701;DHT22;8969;48.576;12.580;2024-03-29T08:26:06;10.10;99.90
17701;DHT22;8969;48.576;12.580;2024-03-29T08:28:35;10.20;99.90
17701;DHT22;8969;48.576;12.580;2024-03-29T08:31:04;10.40;99.90
17701;DHT22;8969;48.576;12.580;2024-03-29T08:33:32;10.50;99.90
17701;DHT22;8969;48.576;12.580;2024-03-29T08:36:00;10.70;99.90
17701;DHT22;8969;48.576;12.580;2024-03-29T08:38:28;10.70;99.90
17701;DHT22;8969;48.576;12.580;2024-03-29T08:40:56;10.70;99.90
17701;DHT22;8969;48.576;12.580;2024-03-29T08:43:23;10.70;99.90
17701;DHT22;8969;48.576;12.580;2024-03-29T08:45:51;10.80;99.90
17701;DHT22;8969;48.576;12.580;2024-03-29T08:48:18;10.80;99.90
17701;DHT22;8969;48.576;12.580;2024-03-29T08:50:45;10.90;99.90
17701;DHT22;8969;48.576;12.580;2024-03-29T08:53:13;11.00;99.90
17701;DHT22;8969;48.576;12.580;2024-03-29T08:55:41;11.20;99.90
17701;DHT22;8969;48.576;12.580;2024-03-29T08:58:10;11.40;99.90
17701;DHT22;8969;48.576;12.580;2024-03-29T09:00:36;11.60;99.90
17701;DHT22;8969;48.576;12.580;2024-03-29T09:03:04;11.70;99.90
17701;DHT22;8969;48.576;12.580;2024-03-29T09:05:32;11.60;99.90
17701;DHT22;8969;48.576;12.580;2024-03-29T09:08:00;11.80;99.90
17701;DHT22;8969;48.576;12.580;2024-03-29T09:10:28;11.80;99.90
17701;DHT22;8969;48.576;12.580;2024-03-29T09:12:55;12.00;99.90
17701;DHT22;8969;48.576;12.580;2024-03-29T09:15:24;12.10;99.90
17701;DHT22;8969;48.576;12.580;2024-03-29T09:17:51;12.30;99.90
17701;DHT22;8969;48.576;12.580;2024-03-29T09:20:21;12.50;99.90
17701;DHT22;8969;48.576;12.580;2024-03-29T09:22:51;12.80;99.90
17701;DHT22;8969;48.576;12.580;2024-03-29T09:25:19;12.80;99.90
17701;DHT22;8969;48.576;12.580;2024-03-29T09:27:46;13.00;99.90
17701;DHT22;8969;48.576;12.580;2024-03-29T09:30:14;13.20;99.90
17701;DHT22;8969;48.576;12.580;2024-03-29T09:32:43;13.30;99.90
17701;DHT22;8969;48.576;12.580;2024-03-29T09:35:10;13.30;99.90
17701;DHT22;8969;48.576;12.580;2024-03-29T09:37:37;13.30;99.90
17701;DHT22;8969;48.576;12.580;2024-03-29T09:40:07;13.30;99.90
17701;DHT22;8969;48.576;12.580;2024-03-29T09:42:35;13.30;99.90
17701;DHT22;8969;48.576;12.580;2024-03-29T09:45:05;13.20;99.90
17701;DHT22;8969;48.576;12.580;2024-03-29T09:47:35;13.30;99.90
17701;DHT22;8969;48.576;12.580;2024-03-29T09:50:05;13.40;99.90
17701;DHT22;8969;48.576;12.580;2024-03-29T09:52:35;13.40;99.90
17701;DHT22;8969;48.576;12.580;2024-03-29T09:55:03;13.60;99.90
17701;DHT22;8969;48.576;12.580;2024-03-29T09:57:31;13.70;99.90
17701;DHT22;8969;48.576;12.580;2024-03-29T09:59:58;13.80;99.90
17701;DHT22;8969;48.576;12.580;2024-03-29T10:02:31;13.90;99.90
17701;DHT22;8969;48.576;12.580;2024-03-29T10:05:06;13.90;99.90
17701;DHT22;8969;48.576;12.580;2024-03-29T10:07:35;13.90;99.90
17701;DHT22;8969;48.576;12.580;2024-03-29T10:10:04;13.90;99.90
17701;DHT22;8969;48.576;12.580;2024-03-29T10:12:31;14.00;99.90
17701;DHT22;8969;48.576;12.580;2024-03-29T10:14:58;14.10;99.90
17701;DHT22;8969;48.576;12.580;2024-03-29T10:17:31;14.10;99.90
17701;DHT22;8969;48.576;12.580;2024-03-29T10:20:00;14.20;99.90
17701;DHT22;8969;48.576;12.580;2024-03-29T10:22:35;14.40;99.90
17701;DHT22;8969;48.576;12.580;2024-03-29T10:25:02;14.50;99.90
17701;DHT22;8969;48.576;12.580;2024-03-29T10:27:30;14.50;99.90
17701;DHT22;8969;48.576;12.580;2024-03-29T10:29:59;14.60;99.90
17701;DHT22;8969;48.576;12.580;2024-03-29T10:32:27;14.70;99.90
17701;DHT22;8969;48.576;12.580;2024-03-29T10:34:54;14.80;99.90
17701;DHT22;8969;48.576;12.580;2024-03-29T10:37:23;15.00;99.90
17701;DHT22;8969;48.576;12.580;2024-03-29T10:39:55;15.10;99.90
17701;DHT22;8969;48.576;12.580;2024-03-29T10:42:24;15.20;99.90
17701;DHT22;8969;48.576;12.580;2024-03-29T10:44:53;15.30;99.90
17701;DHT22;8969;48.576;12.580;2024-03-29T10:47:23;15.50;99.90
17701;DHT22;8969;48.576;12.580;2024-03-29T10:49:53;15.60;99.90
17701;DHT22;8969;48.576;12.580;2024-03-29T10:52:21;15.50;99.90
17701;DHT22;8969;48.576;12.580;2024-03-29T10:54:50;15.50;99.90
17701;DHT22;8969;48.576;12.580;2024-03-29T10:57:22;15.40;99.90
17701;DHT22;8969;48.576;12.580;2024-03-29T10:59:57;15.40;99.90
17701;DHT22;8969;48.576;12.580;2024-03-29T11:02:48;15.40;99.90
17701;DHT22;8969;48.576;12.580;2024-03-29T11:05:16;15.50;99.90
17701;DHT22;8969;48.576;12.580;2024-03-29T11:07:45;15.60;99.90
17701;DHT22;8969;48.576;12.580;2024-03-29T11:10:15;15.60;99.90
17701;DHT22;8969;48.576;12.580;2024-03-29T11:12:54;15.70;99.90
17701;DHT22;8969;48.576;12.580;2024-03-29T11:15:30;15.90;99.90
17701;DHT22;8969;48.576;12.580;2024-03-29T11:17:58;15.90;99.90
17701;DHT22;8969;48.576;12.580;2024-03-29T11:20:26;16.20;99.90
17701;DHT22;8969;48.576;12.580;2024-03-29T11:23:06;16.10;99.90
17701;DHT22;8969;48.576;12.580;2024-03-29T11:25:43;16.00;99.90
17701;DHT22;8969;48.576;12.580;2024-03-29T11:28:21;16.00;99.90
17701;DHT22;8969;48.576;12.580;2024-03-29T11:30:50;16.00;99.90
17701;DHT22;8969;48.576;12.580;2024-03-29T11:33:27;16.10;99.90
17701;DHT22;8969;48.576;12.580;2024-03-29T11:35:54;16.20;99.90
17701;DHT22;8969;48.576;12.580;2024-03-29T11:38:22;16.20;99.90
17701;DHT22;8969;48.576;12.580;2024-03-29T11:41:01;16.30;99.90
17701;DHT22;8969;48.576;12.580;2024-03-29T11:43:32;16.40;99.90
17701;DHT22;8969;48.576;12.580;2024-03-29T11:46:00;16.40;99.90
17701;DHT22;8969;48.576;12.580;2024-03-29T11:48:29;16.40;99.90
17701;DHT22;8969;48.576;12.580;2024-03-29T11:50:58;16.50;99.90
17701;DHT22;8969;48.576;12.580;2024-03-29T11:53:27;16.40;99.90
17701;DHT22;8969;48.576;12.580;2024-03-29T11:55:56;16.40;99.90
17701;DHT22;8969;48.576;12.580;2024-03-29T11:58:25;16.40;99.90
17701;DHT22;8969;48.576;12.580;2024-03-29T12:00:55;16.20;99.90
17701;DHT22;8969;48.576;12.580;2024-03-29T12:03:25;16.20;99.90
17701;DHT22;8969;48.576;12.580;2024-03-29T12:05:54;16.20;99.90
17701;DHT22;8969;48.576;12.580;2024-03-29T12:08:24;16.30;99.90
17701;DHT22;8969;48.576;12.580;2024-03-29T12:10:52;16.20;99.90
17701;DHT22;8969;48.576;12.580;2024-03-29T12:13:19;16.30;99.90
17701;DHT22;8969;48.576;12.580;2024-03-29T12:15:47;16.40;99.90
17701;DHT22;8969;48.576;12.580;2024-03-29T12:18:15;16.20;99.90
17701;DHT22;8969;48.576;12.580;2024-03-29T12:20:43;16.30;99.90
17701;DHT22;8969;48.576;12.580;2024-03-29T12:23:16;16.30;99.90
17701;DHT22;8969;48.576;12.580;2024-03-29T12:25:44;16.30;99.90
17701;DHT22;8969;48.576;12.580;2024-03-29T12:28:13;16.40;99.90
17701;DHT22;8969;48.576;12.580;2024-03-29T12:30:43;16.30;99.90
17701;DHT22;8969;48.576;12.580;2024-03-29T12:33:13;16.30;99.90
17701;DHT22;8969;48.576;12.580;2024-03-29T12:35:43;16.20;99.90
17701;DHT22;8969;48.576;12.580;2024-03-29T12:38:11;16.20;99.90
17701;DHT22;8969;48.576;12.580;2024-03-29T12:40:41;16.10;99.90
17701;DHT22;8969;48.576;12.580;2024-03-29T12:43:10;16.10;99.90
17701;DHT22;8969;48.576;12.580;2024-03-29T12:45:39;16.10;99.90
17701;DHT22;8969;48.576;12.580;2024-03-29T12:48:10;16.00;99.90
17701;DHT22;8969;48.576;12.580;2024-03-29T12:50:39;16.10;99.90
17701;DHT22;8969;48.576;12.580;2024-03-29T12:53:09;16.00;99.90
17701;DHT22;8969;48.576;12.580;2024-03-29T12:55:39;16.00;99.90
17701;DHT22;8969;48.576;12.580;2024-03-29T12:58:08;16.20;99.90
17701;DHT22;8969;48.576;12.580;2024-03-29T13:00:37;16.50;99.90
17701;DHT22;8969;48.576;12.580;2024-03-29T13:03:05;16.50;99.90
17701;DHT22;8969;48.576;12.580;2024-03-29T13:05:34;16.90;99.90
17701;DHT22;8969;48.576;12.580;2024-03-29T13:08:09;17.10;99.90
17701;DHT22;8969;48.576;12.580;2024-03-29T13:10:37;17.20;99.90
17701;DHT22;8969;48.576;12.580;2024-03-29T13:13:05;17.20;99.90
17701;DHT22;8969;48.576;12.580;2024-03-29T13:15:33;17.40;99.90
17701;DHT22;8969;48.576;12.580;2024-03-29T13:18:01;17.60;99.90
17701;DHT22;8969;48.576;12.580;2024-03-29T13:20:31;17.70;99.90
17701;DHT22;8969;48.576;12.580;2024-03-29T13:22:58;17.60;99.90
17701;DHT22;8969;48.576;12.580;2024-03-29T13:25:28;17.70;99.90
17701;DHT22;8969;48.576;12.580;2024-03-29T13:27:55;17.80;99.90
17701;DHT22;8969;48.576;12.580;2024-03-29T13:30:24;17.90;99.90
17701;DHT22;8969;48.576;12.580;2024-03-29T13:32:53;17.90;99.90
17701;DHT22;8969;48.576;12.580;2024-03-29T13:35:20;17.70;99.90
17701;DHT22;8969;48.576;12.580;2024-03-29T13:37:49;17.70;99.90
17701;DHT22;8969;48.576;12.580;2024-03-29T13:40:19;17.70;99.90
17701;DHT22;8969;48.576;12.580;2024-03-29T13:42:48;17.90;99.90
17701;DHT22;8969;48.576;12.580;2024-03-29T13:45:15;18.00;99.90
17701;DHT22;8969;48.576;12.580;2024-03-29T13:47:44;18.00;99.90
17701;DHT22;8969;48.576;12.580;2024-03-29T13:50:13;18.20;99.90
17701;DHT22;8969;48.576;12.580;2024-03-29T13:52:41;18.10;99.90
17701;DHT22;8969;48.576;12.580;2024-03-29T13:55:09;18.10;99.90
17701;DHT22;8969;48.576;12.580;2024-03-29T13:57:37;18.20;99.90
17701;DHT22;8969;48.576;12.580;2024-03-29T14:00:06;18.30;99.90
17701;DHT22;8969;48.576;12.580;2024-03-29T14:02:34;18.20;99.90
17701;DHT22;8969;48.576;12.580;2024-03-29T14:05:01;18.20;99.90
17701;DHT22;8969;48.576;12.580;2024-03-29T14:07:29;18.00;99.90
17701;DHT22;8969;48.576;12.580;2024-03-29T14:09:56;18.00;99.90
17701;DHT22;8969;48.576;12.580;2024-03-29T14:12:24;18.10;99.90
17701;DHT22;8969;48.576;12.580;2024-03-29T14:14:54;18.20;99.90
17701;DHT22;8969;48.576;12.580;2024-03-29T14:17:24;18.30;99.90
17701;DHT22;8969;48.576;12.580;2024-03-29T14:19:52;18.40;99.90
17701;DHT22;8969;48.576;12.580;2024-03-29T14:22:19;18.40;99.90
17701;DHT22;8969;48.576;12.580;2024-03-29T14:24:47;18.50;99.90
17701;DHT22;8969;48.576;12.580;2024-03-29T14:27:15;18.20;99.90
17701;DHT22;8969;48.576;12.580;2024-03-29T14:29:42;17.90;99.90
17701;DHT22;8969;48.576;12.580;2024-03-29T14:32:12;17.90;99.90
17701;DHT22;8969;48.576;12.580;2024-03-29T14:34:40;17.80;99.90
17701;DHT22;8969;48.576;12.580;2024-03-29T14:37:12;17.90;99.90
17701;DHT22;8969;48.576;12.580;2024-03-29T14:39:42;17.90;99.90
17701;DHT22;8969;48.576;12.580;2024-03-29T14:42:10;17.90;99.90
17701;DHT22;8969;48.576;12.580;2024-03-29T14:44:39;17.90;99.90
17701;DHT22;8969;48.576;12.580;2024-03-29T14:47:06;18.00;99.90
17701;DHT22;8969;48.576;12.580;2024-03-29T14:49:33;17.90;99.90
17701;DHT22;8969;48.576;12.580;2024-03-29T14:52:03;17.90;99.90
17701;DHT22;8969;48.576;12.580;2024-03-29T14:54:31;18.00;99.90
17701;DHT22;8969;48.576;12.580;2024-03-29T14:56:58;18.00;99.90
17701;DHT22;8969;48.576;12.580;2024-03-29T14:59:25;18.00;99.90
17701;DHT22;8969;48.576;12.580;2024-03-29T15:01:56;17.90;99.90
17701;DHT22;8969;48.576;12.580;2024-03-29T15:04:24;17.90;99.90
17701;DHT22;8969;48.576;12.580;2024-03-29T15:06:52;17.90;99.90
17701;DHT22;8969;48.576;12.580;2024-03-29T15:09:20;17.90;99.90
17701;DHT22;8969;48.576;12.580;2024-03-29T15:11:48;17.80;99.90
17701;DHT22;8969;48.576;12.580;2024-03-29T15:14:15;17.80;99.90
17701;DHT22;8969;48.576;12.580;2024-03-29T15:16:43;17.80;99.90
17701;DHT22;8969;48.576;12.580;2024-03-29T15:19:11;17.70;99.90
17701;DHT22;8969;48.576;12.580;2024-03-29T15:21:39;17.70;99.90
17701;DHT22;8969;48.576;12.580;2024-03-29T15:24:09;17.70;99.90
17701;DHT22;8969;48.576;12.580;2024-03-29T15:26:38;17.60;99.90
17701;DHT22;8969;48.576;12.580;2024-03-29T15:29:06;17.60;99.90
17701;DHT22;8969;48.576;12.580;2024-03-29T15:31:37;17.60;99.90
17701;DHT22;8969;48.576;12.580;2024-03-29T15:34:05;17.60;99.90
17701;DHT22;8969;48.576;12.580;2024-03-29T15:36:34;17.60;99.90
17701;DHT22;8969;48.576;12.580;2024-03-29T15:39:03;17.60;99.90
17701;DHT22;8969;48.576;12.580;2024-03-29T15:41:35;17.50;99.90
17701;DHT22;8969;48.576;12.580;2024-03-29T15:44:03;17.50;99.90
17701;DHT22;8969;48.576;12.580;2024-03-29T15:46:31;17.50;99.90